White Earth, North Dakota
Current Conditions -  °F | °C
As of 8:35 PM on Thursday 27 Nov 2014 (Local Time) from KD60 Reporting Station
Overcast Overcast  
Wind Chill: -19°   Ceiling: 1000
Heat Index: -11°   Visibility: 10mi
Dew Point: -11°   Wind: 13mph
Humidity: 100%   Direction: 120°ESE
Pressure: 29.88"   Gusts: NA
Location:  48.38°N, 102.77°W
Report Text: KD60 280235Z AUTO 12011KT 10SM OVC010 M11/M11 A2988 RMK AO2
Loading
Personal Weather Stations






























Interactive Weather Map New forecast layout! Learn more

10-Day Weather Forecast

Advertisements
Track Severe Weather on mobile